sensor_id;sensor_type;location;lat;lon;timestamp;temperature;humidity
9237;DHT22;24579;42.810;23.214;2022-07-23T00:00:42;20.30;88.50
9237;DHT22;24579;42.810;23.214;2022-07-23T00:03:23;20.30;88.30
9237;DHT22;24579;42.810;23.214;2022-07-23T00:06:12;20.40;88.60
9237;DHT22;24579;42.810;23.214;2022-07-23T00:08:44;20.20;88.40
9237;DHT22;24579;42.810;23.214;2022-07-23T00:11:37;20.20;88.70
9237;DHT22;24579;42.810;23.214;2022-07-23T00:14:17;20.20;88.60
9237;DHT22;24579;42.810;23.214;2022-07-23T00:17:02;20.10;89.70
9237;DHT22;24579;42.810;23.214;2022-07-23T00:19:48;20.10;90.10
9237;DHT22;24579;42.810;23.214;2022-07-23T00:22:22;20.00;90.70
9237;DHT22;24579;42.810;23.214;2022-07-23T00:24:54;20.00;90.80
9237;DHT22;24579;42.810;23.214;2022-07-23T00:27:35;20.10;90.80
9237;DHT22;24579;42.810;23.214;2022-07-23T00:30:07;19.90;90.80
9237;DHT22;24579;42.810;23.214;2022-07-23T00:32:46;20.00;91.10
9237;DHT22;24579;42.810;23.214;2022-07-23T00:35:21;19.90;91.30
9237;DHT22;24579;42.810;23.214;2022-07-23T00:38:35;19.90;91.50
9237;DHT22;24579;42.810;23.214;2022-07-23T00:40:59;19.90;91.60
9237;DHT22;24579;42.810;23.214;2022-07-23T00:43:37;19.80;91.80
9237;DHT22;24579;42.810;23.214;2022-07-23T00:46:09;19.80;92.10
9237;DHT22;24579;42.810;23.214;2022-07-23T00:48:51;19.80;92.20
9237;DHT22;24579;42.810;23.214;2022-07-23T00:51:29;19.80;91.60
9237;DHT22;24579;42.810;23.214;2022-07-23T00:54:14;19.70;91.30
9237;DHT22;24579;42.810;23.214;2022-07-23T00:56:52;19.40;91.10
9237;DHT22;24579;42.810;23.214;2022-07-23T00:59:24;19.10;91.50
9237;DHT22;24579;42.810;23.214;2022-07-23T01:01:54;19.10;91.90
9237;DHT22;24579;42.810;23.214;2022-07-23T01:04:39;19.30;91.70
9237;DHT22;24579;42.810;23.214;2022-07-23T01:07:38;19.30;91.60
9237;DHT22;24579;42.810;23.214;2022-07-23T01:10:30;19.40;91.20
9237;DHT22;24579;42.810;23.214;2022-07-23T01:13:03;19.40;91.20
9237;DHT22;24579;42.810;23.214;2022-07-23T01:15:55;19.10;91.50
9237;DHT22;24579;42.810;23.214;2022-07-23T01:18:37;19.10;91.80
9237;DHT22;24579;42.810;23.214;2022-07-23T01:21:06;19.00;92.00
9237;DHT22;24579;42.810;23.214;2022-07-23T01:23:40;19.00;92.10
9237;DHT22;24579;42.810;23.214;2022-07-23T01:26:11;19.00;92.20
9237;DHT22;24579;42.810;23.214;2022-07-23T01:28:43;18.70;92.40
9237;DHT22;24579;42.810;23.214;2022-07-23T01:31:22;18.70;92.80
9237;DHT22;24579;42.810;23.214;2022-07-23T01:34:15;18.80;92.90
9237;DHT22;24579;42.810;23.214;2022-07-23T01:36:51;18.80;92.80
9237;DHT22;24579;42.810;23.214;2022-07-23T01:39:37;18.90;92.90
9237;DHT22;24579;42.810;23.214;2022-07-23T01:42:19;18.90;93.00
9237;DHT22;24579;42.810;23.214;2022-07-23T01:44:56;18.90;93.10
9237;DHT22;24579;42.810;23.214;2022-07-23T01:47:41;18.90;93.20
9237;DHT22;24579;42.810;23.214;2022-07-23T01:50:14;18.90;93.40
9237;DHT22;24579;42.810;23.214;2022-07-23T01:52:51;18.80;93.50
9237;DHT22;24579;42.810;23.214;2022-07-23T01:55:40;18.60;94.60
9237;DHT22;24579;42.810;23.214;2022-07-23T01:58:14;18.60;95.10
9237;DHT22;24579;42.810;23.214;2022-07-23T02:00:47;18.60;95.40
9237;DHT22;24579;42.810;23.214;2022-07-23T02:03:18;18.60;95.60
9237;DHT22;24579;42.810;23.214;2022-07-23T02:06:05;18.20;96.10
9237;DHT22;24579;42.810;23.214;2022-07-23T02:08:40;18.10;97.10
9237;DHT22;24579;42.810;23.214;2022-07-23T02:11:24;17.90;97.70
9237;DHT22;24579;42.810;23.214;2022-07-23T02:13:56;18.10;98.30
9237;DHT22;24579;42.810;23.214;2022-07-23T02:16:40;18.20;97.40
9237;DHT22;24579;42.810;23.214;2022-07-23T02:19:15;17.80;97.00
9237;DHT22;24579;42.810;23.214;2022-07-23T02:21:48;17.70;99.10
9237;DHT22;24579;42.810;23.214;2022-07-23T02:27:16;17.80;98.50
9237;DHT22;24579;42.810;23.214;2022-07-23T02:29:46;17.60;98.30
9237;DHT22;24579;42.810;23.214;2022-07-23T02:32:17;17.70;99.00
9237;DHT22;24579;42.810;23.214;2022-07-23T02:34:48;17.90;98.40
9237;DHT22;24579;42.810;23.214;2022-07-23T02:37:33;18.00;97.70
9237;DHT22;24579;42.810;23.214;2022-07-23T02:40:29;17.90;97.10
9237;DHT22;24579;42.810;23.214;2022-07-23T02:43:09;17.80;97.00
9237;DHT22;24579;42.810;23.214;2022-07-23T02:46:01;17.60;97.20
9237;DHT22;24579;42.810;23.214;2022-07-23T02:48:40;17.20;97.60
9237;DHT22;24579;42.810;23.214;2022-07-23T02:51:12;16.70;99.50
9237;DHT22;24579;42.810;23.214;2022-07-23T02:56:43;16.30;99.90
9237;DHT22;24579;42.810;23.214;2022-07-23T02:59:23;16.60;99.90
9237;DHT22;24579;42.810;23.214;2022-07-23T03:01:52;16.60;99.90
9237;DHT22;24579;42.810;23.214;2022-07-23T03:04:43;16.70;99.90
9237;DHT22;24579;42.810;23.214;2022-07-23T03:07:34;16.60;99.90
9237;DHT22;24579;42.810;23.214;2022-07-23T03:10:10;16.50;99.90
9237;DHT22;24579;42.810;23.214;2022-07-23T03:12:41;16.00;99.90
9237;DHT22;24579;42.810;23.214;2022-07-23T03:15:24;16.30;99.90
9237;DHT22;24579;42.810;23.214;2022-07-23T03:18:09;16.20;99.90
9237;DHT22;24579;42.810;23.214;2022-07-23T03:20:41;16.20;99.90
9237;DHT22;24579;42.810;23.214;2022-07-23T03:23:21;16.30;99.90
9237;DHT22;24579;42.810;23.214;2022-07-23T03:25:54;15.90;99.90
9237;DHT22;24579;42.810;23.214;2022-07-23T03:28:35;16.00;99.90
9237;DHT22;24579;42.810;23.214;2022-07-23T03:31:10;16.20;99.90
9237;DHT22;24579;42.810;23.214;2022-07-23T03:33:59;16.50;99.90
9237;DHT22;24579;42.810;23.214;2022-07-23T03:36:37;16.40;99.90
9237;DHT22;24579;42.810;23.214;2022-07-23T03:39:04;16.40;99.90
9237;DHT22;24579;42.810;23.214;2022-07-23T03:41:44;16.10;99.90
9237;DHT22;24579;42.810;23.214;2022-07-23T03:44:16;16.00;99.90
9237;DHT22;24579;42.810;23.214;2022-07-23T03:47:10;16.00;99.90
9237;DHT22;24579;42.810;23.214;2022-07-23T03:49:49;16.00;99.90
9237;DHT22;24579;42.810;23.214;2022-07-23T03:52:29;16.00;99.90
9237;DHT22;24579;42.810;23.214;2022-07-23T03:55:11;16.10;99.90
9237;DHT22;24579;42.810;23.214;2022-07-23T03:57:49;16.30;99.90
9237;DHT22;24579;42.810;23.214;2022-07-23T04:03:31;16.70;99.90
9237;DHT22;24579;42.810;23.214;2022-07-23T04:08:36;16.70;99.90
9237;DHT22;24579;42.810;23.214;2022-07-23T04:11:10;16.90;99.90
9237;DHT22;24579;42.810;23.214;2022-07-23T04:13:48;17.10;99.90
9237;DHT22;24579;42.810;23.214;2022-07-23T04:16:25;17.30;99.90
9237;DHT22;24579;42.810;23.214;2022-07-23T04:19:09;17.40;99.90
9237;DHT22;24579;42.810;23.214;2022-07-23T04:21:42;17.40;99.90
9237;DHT22;24579;42.810;23.214;2022-07-23T04:24:14;17.20;99.90
9237;DHT22;24579;42.810;23.214;2022-07-23T04:26:50;16.80;99.90
9237;DHT22;24579;42.810;23.214;2022-07-23T04:29:29;17.00;99.90
9237;DHT22;24579;42.810;23.214;2022-07-23T04:31:59;17.20;99.90
9237;DHT22;24579;42.810;23.214;2022-07-23T04:34:29;17.10;99.90
9237;DHT22;24579;42.810;23.214;2022-07-23T04:37:07;17.60;99.90
9237;DHT22;24579;42.810;23.214;2022-07-23T04:39:54;17.60;99.90
9237;DHT22;24579;42.810;23.214;2022-07-23T04:42:38;17.70;99.90
9237;DHT22;24579;42.810;23.214;2022-07-23T04:45:10;17.80;99.90
9237;DHT22;24579;42.810;23.214;2022-07-23T04:47:50;17.80;99.90
9237;DHT22;24579;42.810;23.214;2022-07-23T04:50:33;18.00;99.90
9237;DHT22;24579;42.810;23.214;2022-07-23T04:55:56;17.80;99.90
9237;DHT22;24579;42.810;23.214;2022-07-23T04:58:26;18.00;99.90
9237;DHT22;24579;42.810;23.214;2022-07-23T05:01:19;18.30;99.90
9237;DHT22;24579;42.810;23.214;2022-07-23T05:03:54;18.40;99.90
9237;DHT22;24579;42.810;23.214;2022-07-23T05:06:35;18.60;99.90
9237;DHT22;24579;42.810;23.214;2022-07-23T05:09:07;18.80;99.90
9237;DHT22;24579;42.810;23.214;2022-07-23T05:11:42;18.90;99.90
9237;DHT22;24579;42.810;23.214;2022-07-23T05:14:18;18.90;99.90
9237;DHT22;24579;42.810;23.214;2022-07-23T05:17:09;18.90;99.90
9237;DHT22;24579;42.810;23.214;2022-07-23T05:19:44;19.40;99.90
9237;DHT22;24579;42.810;23.214;2022-07-23T05:22:20;19.70;99.90
9237;DHT22;24579;42.810;23.214;2022-07-23T05:25:00;19.80;99.90
9237;DHT22;24579;42.810;23.214;2022-07-23T05:27:36;19.70;99.90
9237;DHT22;24579;42.810;23.214;2022-07-23T05:30:18;20.00;99.90
9237;DHT22;24579;42.810;23.214;2022-07-23T05:32:58;20.30;99.00
9237;DHT22;24579;42.810;23.214;2022-07-23T05:35:30;20.70;98.80
9237;DHT22;24579;42.810;23.214;2022-07-23T05:38:09;20.90;98.00
9237;DHT22;24579;42.810;23.214;2022-07-23T05:40:48;21.10;96.40
9237;DHT22;24579;42.810;23.214;2022-07-23T05:43:35;21.20;96.30
9237;DHT22;24579;42.810;23.214;2022-07-23T05:49:06;21.10;95.00
9237;DHT22;24579;42.810;23.214;2022-07-23T05:51:43;21.30;95.60
9237;DHT22;24579;42.810;23.214;2022-07-23T05:54:49;21.60;93.70
9237;DHT22;24579;42.810;23.214;2022-07-23T05:57:20;21.60;94.50
9237;DHT22;24579;42.810;23.214;2022-07-23T05:59:59;21.60;93.70
9237;DHT22;24579;42.810;23.214;2022-07-23T06:02:32;21.90;92.50
9237;DHT22;24579;42.810;23.214;2022-07-23T06:05:16;21.90;92.20
9237;DHT22;24579;42.810;23.214;2022-07-23T06:07:50;22.00;92.70
9237;DHT22;24579;42.810;23.214;2022-07-23T06:10:22;22.30;91.60
9237;DHT22;24579;42.810;23.214;2022-07-23T06:12:55;22.50;90.70
9237;DHT22;24579;42.810;23.214;2022-07-23T06:15:29;22.50;90.70
9237;DHT22;24579;42.810;23.214;2022-07-23T06:18:07;22.80;90.40
9237;DHT22;24579;42.810;23.214;2022-07-23T06:20:51;23.00;91.50
9237;DHT22;24579;42.810;23.214;2022-07-23T06:23:38;23.10;90.20
9237;DHT22;24579;42.810;23.214;2022-07-23T06:26:26;23.30;88.50
9237;DHT22;24579;42.810;23.214;2022-07-23T06:28:57;23.60;88.20
9237;DHT22;24579;42.810;23.214;2022-07-23T06:31:35;23.40;87.90
9237;DHT22;24579;42.810;23.214;2022-07-23T06:34:10;23.70;88.50
9237;DHT22;24579;42.810;23.214;2022-07-23T06:36:43;23.80;88.20
9237;DHT22;24579;42.810;23.214;2022-07-23T06:39:20;23.90;85.50
9237;DHT22;24579;42.810;23.214;2022-07-23T06:42:10;23.90;87.70
9237;DHT22;24579;42.810;23.214;2022-07-23T06:44:51;24.20;85.80
9237;DHT22;24579;42.810;23.214;2022-07-23T06:47:38;24.50;85.00
9237;DHT22;24579;42.810;23.214;2022-07-23T06:50:16;24.80;84.60
9237;DHT22;24579;42.810;23.214;2022-07-23T06:52:48;25.00;83.80
9237;DHT22;24579;42.810;23.214;2022-07-23T06:55:20;25.00;82.60
9237;DHT22;24579;42.810;23.214;2022-07-23T06:58:01;25.00;81.90
9237;DHT22;24579;42.810;23.214;2022-07-23T07:00:32;25.30;82.00
9237;DHT22;24579;42.810;23.214;2022-07-23T07:06:09;25.40;76.60
9237;DHT22;24579;42.810;23.214;2022-07-23T07:08:47;25.30;76.70
9237;DHT22;24579;42.810;23.214;2022-07-23T07:11:15;25.60;78.60
9237;DHT22;24579;42.810;23.214;2022-07-23T07:13:50;25.90;77.80
9237;DHT22;24579;42.810;23.214;2022-07-23T07:16:44;26.20;77.10
9237;DHT22;24579;42.810;23.214;2022-07-23T07:19:20;26.40;74.20
9237;DHT22;24579;42.810;23.214;2022-07-23T07:21:47;26.40;73.90
9237;DHT22;24579;42.810;23.214;2022-07-23T07:24:30;26.40;71.90
9237;DHT22;24579;42.810;23.214;2022-07-23T07:27:04;26.60;69.80
9237;DHT22;24579;42.810;23.214;2022-07-23T07:29:53;26.50;69.70
9237;DHT22;24579;42.810;23.214;2022-07-23T07:32:39;26.60;69.20
9237;DHT22;24579;42.810;23.214;2022-07-23T07:35:28;27.20;68.20
9237;DHT22;24579;42.810;23.214;2022-07-23T07:38:04;27.40;67.50
9237;DHT22;24579;42.810;23.214;2022-07-23T07:40:48;27.40;67.30
9237;DHT22;24579;42.810;23.214;2022-07-23T07:43:44;27.70;67.30
9237;DHT22;24579;42.810;23.214;2022-07-23T07:46:46;27.70;69.10
9237;DHT22;24579;42.810;23.214;2022-07-23T07:49:27;27.80;67.30
9237;DHT22;24579;42.810;23.214;2022-07-23T07:52:00;27.80;67.10
9237;DHT22;24579;42.810;23.214;2022-07-23T07:54:34;28.40;65.60
9237;DHT22;24579;42.810;23.214;2022-07-23T07:57:04;28.60;63.30
9237;DHT22;24579;42.810;23.214;2022-07-23T07:59:32;28.50;65.90
9237;DHT22;24579;42.810;23.214;2022-07-23T08:02:12;28.40;63.90
9237;DHT22;24579;42.810;23.214;2022-07-23T08:05:03;28.60;65.20
9237;DHT22;24579;42.810;23.214;2022-07-23T08:07:42;28.90;66.20
9237;DHT22;24579;42.810;23.214;2022-07-23T08:10:42;29.00;66.40
9237;DHT22;24579;42.810;23.214;2022-07-23T08:13:12;29.40;62.30
9237;DHT22;24579;42.810;23.214;2022-07-23T08:15:44;29.60;58.90
9237;DHT22;24579;42.810;23.214;2022-07-23T08:18:22;29.90;58.60
9237;DHT22;24579;42.810;23.214;2022-07-23T08:20:56;30.00;59.80
9237;DHT22;24579;42.810;23.214;2022-07-23T08:23:31;30.30;57.80
9237;DHT22;24579;42.810;23.214;2022-07-23T08:26:00;30.10;58.10
9237;DHT22;24579;42.810;23.214;2022-07-23T08:28:36;30.50;58.10
9237;DHT22;24579;42.810;23.214;2022-07-23T08:31:12;31.00;55.80
9237;DHT22;24579;42.810;23.214;2022-07-23T08:33:46;30.40;55.30
9237;DHT22;24579;42.810;23.214;2022-07-23T08:36:56;30.80;57.40
9237;DHT22;24579;42.810;23.214;2022-07-23T08:39:33;31.00;53.90
9237;DHT22;24579;42.810;23.214;2022-07-23T08:42:21;31.40;54.00
9237;DHT22;24579;42.810;23.214;2022-07-23T08:45:05;31.80;51.90
9237;DHT22;24579;42.810;23.214;2022-07-23T08:47:42;32.00;51.30
9237;DHT22;24579;42.810;23.214;2022-07-23T08:53:15;32.50;50.00
9237;DHT22;24579;42.810;23.214;2022-07-23T08:55:44;32.40;49.00
9237;DHT22;24579;42.810;23.214;2022-07-23T08:58:34;32.50;48.70
9237;DHT22;24579;42.810;23.214;2022-07-23T09:01:07;32.30;48.80
9237;DHT22;24579;42.810;23.214;2022-07-23T09:03:44;32.40;50.00
9237;DHT22;24579;42.810;23.214;2022-07-23T09:06:42;32.60;47.70
9237;DHT22;24579;42.810;23.214;2022-07-23T09:09:25;32.80;47.90
9237;DHT22;24579;42.810;23.214;2022-07-23T09:12:12;33.20;47.60
9237;DHT22;24579;42.810;23.214;2022-07-23T09:14:45;33.10;48.50
9237;DHT22;24579;42.810;23.214;2022-07-23T09:17:31;33.00;47.20
9237;DHT22;24579;42.810;23.214;2022-07-23T09:20:21;33.10;46.30
9237;DHT22;24579;42.810;23.214;2022-07-23T09:23:08;33.30;46.50
9237;DHT22;24579;42.810;23.214;2022-07-23T09:25:58;32.90;45.50
9237;DHT22;24579;42.810;23.214;2022-07-23T09:28:50;33.10;46.80
9237;DHT22;24579;42.810;23.214;2022-07-23T09:31:30;33.30;45.30
9237;DHT22;24579;42.810;23.214;2022-07-23T09:34:19;33.60;44.40
9237;DHT22;24579;42.810;23.214;2022-07-23T09:40:04;34.30;43.70
9237;DHT22;24579;42.810;23.214;2022-07-23T09:42:55;34.10;40.20
9237;DHT22;24579;42.810;23.214;2022-07-23T09:46:02;34.20;41.60
9237;DHT22;24579;42.810;23.214;2022-07-23T09:48:41;34.50;40.50
9237;DHT22;24579;42.810;23.214;2022-07-23T09:51:26;34.80;39.00
9237;DHT22;24579;42.810;23.214;2022-07-23T09:54:02;34.90;38.80
9237;DHT22;24579;42.810;23.214;2022-07-23T09:56:34;34.70;38.40
9237;DHT22;24579;42.810;23.214;2022-07-23T09:59:18;35.00;38.60
9237;DHT22;24579;42.810;23.214;2022-07-23T10:02:04;35.40;39.90
9237;DHT22;24579;42.810;23.214;2022-07-23T10:04:36;35.80;38.10
9237;DHT22;24579;42.810;23.214;2022-07-23T10:07:13;36.30;37.20
9237;DHT22;24579;42.810;23.214;2022-07-23T10:10:11;36.00;36.30
9237;DHT22;24579;42.810;23.214;2022-07-23T10:12:49;36.30;35.20
9237;DHT22;24579;42.810;23.214;2022-07-23T10:15:40;35.80;34.10
9237;DHT22;24579;42.810;23.214;2022-07-23T10:18:10;35.70;34.60
9237;DHT22;24579;42.810;23.214;2022-07-23T10:21:30;35.70;34.50
9237;DHT22;24579;42.810;23.214;2022-07-23T10:24:01;35.60;34.60
9237;DHT22;24579;42.810;23.214;2022-07-23T10:26:47;36.10;34.50
9237;DHT22;24579;42.810;23.214;2022-07-23T10:29:37;36.00;33.60
9237;DHT22;24579;42.810;23.214;2022-07-23T10:32:37;35.90;32.60
9237;DHT22;24579;42.810;23.214;2022-07-23T10:35:36;36.60;35.20
9237;DHT22;24579;42.810;23.214;2022-07-23T10:38:24;36.30;32.10
9237;DHT22;24579;42.810;23.214;2022-07-23T10:41:29;36.80;31.50
9237;DHT22;24579;42.810;23.214;2022-07-23T10:44:12;37.40;32.30
9237;DHT22;24579;42.810;23.214;2022-07-23T10:47:00;36.80;32.10
9237;DHT22;24579;42.810;23.214;2022-07-23T10:49:50;36.60;31.90
9237;DHT22;24579;42.810;23.214;2022-07-23T10:52:32;37.10;31.90
9237;DHT22;24579;42.810;23.214;2022-07-23T10:58:19;37.20;31.00
9237;DHT22;24579;42.810;23.214;2022-07-23T11:01:00;37.00;31.60
9237;DHT22;24579;42.810;23.214;2022-07-23T11:03:42;36.70;32.20
9237;DHT22;24579;42.810;23.214;2022-07-23T11:07:07;36.90;31.80
9237;DHT22;24579;42.810;23.214;2022-07-23T11:09:43;37.20;31.20
9237;DHT22;24579;42.810;23.214;2022-07-23T11:12:38;36.90;30.40
9237;DHT22;24579;42.810;23.214;2022-07-23T11:15:25;37.00;30.20
9237;DHT22;24579;42.810;23.214;2022-07-23T11:18:07;37.60;29.90
9237;DHT22;24579;42.810;23.214;2022-07-23T11:20:43;37.90;29.60
9237;DHT22;24579;42.810;23.214;2022-07-23T11:26:45;38.20;29.00
9237;DHT22;24579;42.810;23.214;2022-07-23T11:32:39;39.40;27.90
9237;DHT22;24579;42.810;23.214;2022-07-23T11:35:31;38.90;28.80
9237;DHT22;24579;42.810;23.214;2022-07-23T11:38:07;38.90;28.20
9237;DHT22;24579;42.810;23.214;2022-07-23T11:40:43;39.10;28.30
9237;DHT22;24579;42.810;23.214;2022-07-23T11:43:13;38.50;30.50
9237;DHT22;24579;42.810;23.214;2022-07-23T11:46:00;38.40;28.40
9237;DHT22;24579;42.810;23.214;2022-07-23T11:48:36;38.30;28.00
9237;DHT22;24579;42.810;23.214;2022-07-23T11:51:08;38.20;28.20
9237;DHT22;24579;42.810;23.214;2022-07-23T11:53:44;38.10;27.90
9237;DHT22;24579;42.810;23.214;2022-07-23T11:56:32;38.30;27.10
9237;DHT22;24579;42.810;23.214;2022-07-23T11:59:37;38.00;26.40
9237;DHT22;24579;42.810;23.214;2022-07-23T12:02:08;38.00;27.10
9237;DHT22;24579;42.810;23.214;2022-07-23T12:04:47;38.10;26.00
9237;DHT22;24579;42.810;23.214;2022-07-23T12:07:28;39.10;24.90
9237;DHT22;24579;42.810;23.214;2022-07-23T12:09:58;39.50;26.50
9237;DHT22;24579;42.810;23.214;2022-07-23T12:12:37;39.50;26.90
9237;DHT22;24579;42.810;23.214;2022-07-23T12:15:09;40.10;24.40
9237;DHT22;24579;42.810;23.214;2022-07-23T12:18:02;40.20;24.30
9237;DHT22;24579;42.810;23.214;2022-07-23T12:20:56;40.20;24.90
9237;DHT22;24579;42.810;23.214;2022-07-23T12:24:04;39.10;24.90
9237;DHT22;24579;42.810;23.214;2022-07-23T12:27:07;38.80;26.00
9237;DHT22;24579;42.810;23.214;2022-07-23T12:29:44;38.80;24.30
9237;DHT22;24579;42.810;23.214;2022-07-23T12:32:25;39.50;25.50
9237;DHT22;24579;42.810;23.214;2022-07-23T12:35:30;40.50;24.50
9237;DHT22;24579;42.810;23.214;2022-07-23T12:38:06;40.20;25.00
9237;DHT22;24579;42.810;23.214;2022-07-23T12:40:50;39.60;23.10
9237;DHT22;24579;42.810;23.214;2022-07-23T12:43:50;39.20;24.20
9237;DHT22;24579;42.810;23.214;2022-07-23T12:46:27;39.60;25.20
9237;DHT22;24579;42.810;23.214;2022-07-23T12:49:10;39.50;24.00
9237;DHT22;24579;42.810;23.214;2022-07-23T12:51:41;39.60;22.90
9237;DHT22;24579;42.810;23.214;2022-07-23T12:54:17;39.60;22.30
9237;DHT22;24579;42.810;23.214;2022-07-23T12:56:51;39.60;23.90
9237;DHT22;24579;42.810;23.214;2022-07-23T12:59:45;39.60;22.00
9237;DHT22;24579;42.810;23.214;2022-07-23T13:02:21;38.90;23.50
9237;DHT22;24579;42.810;23.214;2022-07-23T13:05:11;39.10;24.40
9237;DHT22;24579;42.810;23.214;2022-07-23T13:07:42;38.90;23.20
9237;DHT22;24579;42.810;23.214;2022-07-23T13:10:10;40.00;22.10
9237;DHT22;24579;42.810;23.214;2022-07-23T13:12:58;40.90;21.50
9237;DHT22;24579;42.810;23.214;2022-07-23T13:15:41;40.90;21.10
9237;DHT22;24579;42.810;23.214;2022-07-23T13:18:10;40.90;20.90
9237;DHT22;24579;42.810;23.214;2022-07-23T13:20:44;40.30;21.10
9237;DHT22;24579;42.810;23.214;2022-07-23T13:23:16;40.20;22.70
9237;DHT22;24579;42.810;23.214;2022-07-23T13:25:54;40.00;22.60
9237;DHT22;24579;42.810;23.214;2022-07-23T13:28:23;39.90;22.80
9237;DHT22;24579;42.810;23.214;2022-07-23T13:31:06;39.40;22.50
9237;DHT22;24579;42.810;23.214;2022-07-23T13:33:45;40.00;21.60
9237;DHT22;24579;42.810;23.214;2022-07-23T13:36:16;39.20;22.60
9237;DHT22;24579;42.810;23.214;2022-07-23T13:38:48;39.20;22.30
9237;DHT22;24579;42.810;23.214;2022-07-23T13:41:20;39.90;23.40
9237;DHT22;24579;42.810;23.214;2022-07-23T13:43:57;40.50;24.10
9237;DHT22;24579;42.810;23.214;2022-07-23T13:46:35;41.00;23.50
9237;DHT22;24579;42.810;23.214;2022-07-23T13:49:23;40.30;22.10
9237;DHT22;24579;42.810;23.214;2022-07-23T13:52:13;39.90;22.50
9237;DHT22;24579;42.810;23.214;2022-07-23T13:54:55;39.80;22.40
9237;DHT22;24579;42.810;23.214;2022-07-23T13:57:29;39.30;22.00
9237;DHT22;24579;42.810;23.214;2022-07-23T14:00:08;40.00;21.70
9237;DHT22;24579;42.810;23.214;2022-07-23T14:02:51;40.20;22.70
9237;DHT22;24579;42.810;23.214;2022-07-23T14:05:44;39.40;21.60
9237;DHT22;24579;42.810;23.214;2022-07-23T14:08:32;39.40;23.00
9237;DHT22;24579;42.810;23.214;2022-07-23T14:13:52;39.10;22.40
9237;DHT22;24579;42.810;23.214;2022-07-23T14:16:48;39.20;22.20
9237;DHT22;24579;42.810;23.214;2022-07-23T14:19:23;39.50;24.70
9237;DHT22;24579;42.810;23.214;2022-07-23T14:22:11;40.00;22.40
9237;DHT22;24579;42.810;23.214;2022-07-23T14:24:40;39.90;23.30
9237;DHT22;24579;42.810;23.214;2022-07-23T14:27:09;39.10;23.10
9237;DHT22;24579;42.810;23.214;2022-07-23T14:29:57;38.90;23.00
9237;DHT22;24579;42.810;23.214;2022-07-23T14:32:41;38.20;23.70
9237;DHT22;24579;42.810;23.214;2022-07-23T14:35:20;39.00;23.80
9237;DHT22;24579;42.810;23.214;2022-07-23T14:37:51;39.70;23.50
9237;DHT22;24579;42.810;23.214;2022-07-23T14:43:17;38.50;23.40
9237;DHT22;24579;42.810;23.214;2022-07-23T14:45:54;38.50;24.30
9237;DHT22;24579;42.810;23.214;2022-07-23T14:48:36;39.10;23.90
9237;DHT22;24579;42.810;23.214;2022-07-23T14:54:10;38.00;23.90
9237;DHT22;24579;42.810;23.214;2022-07-23T14:56:42;38.20;24.50
9237;DHT22;24579;42.810;23.214;2022-07-23T14:59:16;37.80;24.70
9237;DHT22;24579;42.810;23.214;2022-07-23T15:01:56;38.00;24.50
9237;DHT22;24579;42.810;23.214;2022-07-23T15:04:48;37.80;24.30
9237;DHT22;24579;42.810;23.214;2022-07-23T15:07:18;37.50;24.20
9237;DHT22;24579;42.810;23.214;2022-07-23T15:09:59;37.70;24.50
9237;DHT22;24579;42.810;23.214;2022-07-23T15:12:35;37.90;23.50
9237;DHT22;24579;42.810;23.214;2022-07-23T15:15:36;37.60;24.20
9237;DHT22;24579;42.810;23.214;2022-07-23T15:18:17;37.50;24.80
9237;DHT22;24579;42.810;23.214;2022-07-23T15:20:51;37.60;24.80
9237;DHT22;24579;42.810;23.214;2022-07-23T15:23:28;37.60;25.10
9237;DHT22;24579;42.810;23.214;2022-07-23T15:26:03;37.80;24.60
9237;DHT22;24579;42.810;23.214;2022-07-23T15:28:36;38.10;24.80
9237;DHT22;24579;42.810;23.214;2022-07-23T15:31:07;38.00;25.40
9237;DHT22;24579;42.810;23.214;2022-07-23T15:33:45;37.90;25.50
9237;DHT22;24579;42.810;23.214;2022-07-23T15:36:53;37.20;26.80
9237;DHT22;24579;42.810;23.214;2022-07-23T15:39:34;36.30;28.80
9237;DHT22;24579;42.810;23.214;2022-07-23T15:42:05;36.40;29.70
9237;DHT22;24579;42.810;23.214;2022-07-23T15:44:48;36.50;30.50
9237;DHT22;24579;42.810;23.214;2022-07-23T15:47:38;36.30;30.20
9237;DHT22;24579;42.810;23.214;2022-07-23T15:50:20;36.40;30.10
9237;DHT22;24579;42.810;23.214;2022-07-23T15:53:09;36.20;30.50
9237;DHT22;24579;42.810;23.214;2022-07-23T15:55:48;35.90;31.80
9237;DHT22;24579;42.810;23.214;2022-07-23T15:58:30;35.80;31.10
9237;DHT22;24579;42.810;23.214;2022-07-23T16:00:59;35.90;31.70
9237;DHT22;24579;42.810;23.214;2022-07-23T16:03:41;35.90;32.00
9237;DHT22;24579;42.810;23.214;2022-07-23T16:06:18;35.80;31.80
9237;DHT22;24579;42.810;23.214;2022-07-23T16:08:48;35.60;32.20
9237;DHT22;24579;42.810;23.214;2022-07-23T16:11:20;35.50;32.00
9237;DHT22;24579;42.810;23.214;2022-07-23T16:14:01;35.70;32.50
9237;DHT22;24579;42.810;23.214;2022-07-23T16:16:36;35.40;31.50
9237;DHT22;24579;42.810;23.214;2022-07-23T16:19:29;35.30;31.60
9237;DHT22;24579;42.810;23.214;2022-07-23T16:22:05;35.40;32.00
9237;DHT22;24579;42.810;23.214;2022-07-23T16:24:36;35.10;31.80
9237;DHT22;24579;42.810;23.214;2022-07-23T16:27:25;34.90;32.40
9237;DHT22;24579;42.810;23.214;2022-07-23T16:30:10;34.70;32.30
9237;DHT22;24579;42.810;23.214;2022-07-23T16:32:56;34.70;32.20
9237;DHT22;24579;42.810;23.214;2022-07-23T16:35:40;34.70;32.60
9237;DHT22;24579;42.810;23.214;2022-07-23T16:38:38;34.70;33.50
9237;DHT22;24579;42.810;23.214;2022-07-23T16:41:25;34.60;34.00
9237;DHT22;24579;42.810;23.214;2022-07-23T16:43:55;34.60;34.90
9237;DHT22;24579;42.810;23.214;2022-07-23T16:46:27;34.50;35.70
9237;DHT22;24579;42.810;23.214;2022-07-23T16:49:04;34.30;35.60
9237;DHT22;24579;42.810;23.214;2022-07-23T16:51:45;34.20;35.30
9237;DHT22;24579;42.810;23.214;2022-07-23T16:54:15;34.20;35.50
9237;DHT22;24579;42.810;23.214;2022-07-23T16:56:58;34.10;35.60
9237;DHT22;24579;42.810;23.214;2022-07-23T16:59:35;34.00;36.30
9237;DHT22;24579;42.810;23.214;2022-07-23T17:02:13;33.90;36.10
9237;DHT22;24579;42.810;23.214;2022-07-23T17:05:02;33.80;36.70
9237;DHT22;24579;42.810;23.214;2022-07-23T17:07:54;33.70;37.20
9237;DHT22;24579;42.810;23.214;2022-07-23T17:10:23;33.60;38.00
9237;DHT22;24579;42.810;23.214;2022-07-23T17:12:54;33.50;38.20
9237;DHT22;24579;42.810;23.214;2022-07-23T17:15:29;33.40;38.30
9237;DHT22;24579;42.810;23.214;2022-07-23T17:18:23;33.20;39.70
9237;DHT22;24579;42.810;23.214;2022-07-23T17:21:10;33.20;39.60
9237;DHT22;24579;42.810;23.214;2022-07-23T17:23:50;33.10;41.50
9237;DHT22;24579;42.810;23.214;2022-07-23T17:26:21;32.90;41.60
9237;DHT22;24579;42.810;23.214;2022-07-23T17:29:13;32.90;42.30
9237;DHT22;24579;42.810;23.214;2022-07-23T17:31:46;32.90;42.90
9237;DHT22;24579;42.810;23.214;2022-07-23T17:34:30;32.60;43.70
9237;DHT22;24579;42.810;23.214;2022-07-23T17:37:09;32.40;44.90